Novohrad, Texas
Current Conditions -  °F | °C
As of 6:35 PM on Thursday 27 Nov 2014 (Local Time) from KT20 Reporting Station
Clear Clear  
Wind Chill: 58°   Ceiling: Unl
Heat Index: 58°   Visibility: 10mi
Dew Point: 35°   Wind: 3mph
Humidity: 42%   Direction: 100°E
Pressure: 30.4"   Gusts: NA
Location:  29.5667°N, 97.0723°W
Report Text: KT20 280035Z AUTO 10003KT 10SM CLR 14/02 A3040 RMK AO2 T01430015
Loading
Personal Weather Stations






























Interactive Weather Map New forecast layout! Learn more

10-Day Weather Forecast

Advertisements
Track Severe Weather on mobile